Time;durP1;ratioP1;P1;durP2;ratioP2;P2;SDS_P1;SDS_P2;PMS_P1;PMS_P2;Temp;Humidity;BMP_temperature;BMP_pressure;BME280_temperature;BME280_humidity;BME280_pressure;Samples;Min_cycle;Max_cycle;Signal;HPM_P1;HPM_P2
2022/07/27 00:00:09;;;;;;;2.92;0.60;;;14.90;99.90;;;;;;5049298;28;20175;-77
2022/07/27 00:02:35;;;;;;;2.75;0.43;;;14.90;99.90;;;;;;5046921;28;20033;-77
2022/07/27 00:05:01;;;;;;;4.47;0.63;;;14.80;99.90;;;;;;5047293;28;20044;-77
2022/07/27 00:07:29;;;;;;;7.47;0.90;;;14.80;99.90;;;;;;5042163;28;20037;-76
2022/07/27 00:09:55;;;;;;;5.03;0.55;;;14.80;99.90;;;;;;5026084;28;20469;-78
2022/07/27 00:12:20;;;;;;;2.67;0.55;;;14.70;99.90;;;;;;5042661;28;20047;-77
2022/07/27 00:14:46;;;;;;;5.15;0.98;;;14.70;99.90;;;;;;5026918;28;20049;-77
2022/07/27 00:17:11;;;;;;;5.70;1.00;;;15.00;99.90;;;;;;5048113;28;20124;-78
2022/07/27 00:19:37;;;;;;;4.93;0.90;;;15.20;99.90;;;;;;5044621;28;20040;-77
2022/07/27 00:22:02;;;;;;;5.18;0.60;;;14.70;99.90;;;;;;5043604;28;20104;-78
2022/07/27 00:24:28;;;;;;;2.97;0.50;;;14.70;99.90;;;;;;5023513;28;20082;-78
2022/07/27 00:26:59;;;;;;;2.88;0.90;;;15.50;99.90;;;;;;5046098;28;20108;-77
2022/07/27 00:29:25;;;;;;;2.35;0.40;;;14.70;99.90;;;;;;5043475;28;20036;-78
2022/07/27 00:31:50;;;;;;;5.53;0.70;;;14.70;99.90;;;;;;5025820;28;20382;-77
2022/07/27 00:34:16;;;;;;;3.65;0.70;;;14.70;99.90;;;;;;5023214;28;20107;-77
2022/07/27 00:36:42;;;;;;;5.82;1.13;;;14.60;99.90;;;;;;5039619;28;20038;-76
2022/07/27 00:39:07;;;;;;;3.38;0.80;;;14.60;99.90;;;;;;5014988;28;20036;-77
2022/07/27 00:41:33;;;;;;;4.43;0.60;;;14.70;99.90;;;;;;5049049;28;20034;-76
2022/07/27 00:43:59;;;;;;;3.65;1.08;;;15.50;99.90;;;;;;5043729;28;20458;-77
2022/07/27 00:46:30;;;;;;;9.15;1.95;;;14.50;99.90;;;;;;5052642;28;20051;-76
2022/07/27 00:48:55;;;;;;;11.68;3.42;;;14.50;99.90;;;;;;5026814;28;20037;-76
2022/07/27 00:51:22;;;;;;;8.02;3.17;;;14.50;99.90;;;;;;5044912;28;20044;-76
2022/07/27 00:53:49;;;;;;;4.00;2.58;;;15.10;99.90;;;;;;5025157;28;20170;-76
2022/07/27 00:56:15;;;;;;;7.15;1.48;;;14.40;99.90;;;;;;5040952;28;20106;-76
2022/07/27 00:58:43;;;;;;;5.80;1.73;;;14.40;99.90;;;;;;5042376;28;20438;-76
2022/07/27 01:01:09;;;;;;;5.20;1.10;;;14.40;99.90;;;;;;5045254;28;20508;-76
2022/07/27 01:03:35;;;;;;;4.10;1.00;;;14.40;99.90;;;;;;5044466;28;20041;-77
2022/07/27 01:06:01;;;;;;;5.55;1.10;;;14.40;99.90;;;;;;5043337;28;20053;-77
2022/07/27 01:08:26;;;;;;;4.50;0.90;;;14.70;99.90;;;;;;5025281;28;20049;-77
2022/07/27 01:10:55;;;;;;;3.55;0.90;;;14.30;99.90;;;;;;5047887;28;20045;-77
2022/07/27 01:13:22;;;;;;;6.55;1.08;;;14.60;99.90;;;;;;5041980;28;20060;-77
2022/07/27 01:15:48;;;;;;;3.40;0.70;;;14.40;99.90;;;;;;5043079;28;20505;-77
2022/07/27 01:18:32;;;;;;;2.92;0.80;;;14.40;99.90;;;;;;5038889;28;20562;-77
2022/07/27 01:21:00;;;;;;;9.07;1.15;;;14.30;99.90;;;;;;5048711;28;20040;-77
2022/07/27 01:23:27;;;;;;;6.60;1.30;;;14.20;99.90;;;;;;5030060;28;20447;-77
2022/07/27 01:25:53;;;;;;;5.15;1.27;;;14.20;99.90;;;;;;5046694;28;20041;-77
2022/07/27 01:28:19;;;;;;;4.38;0.80;;;14.10;99.90;;;;;;5040850;28;20431;-77
2022/07/27 01:30:45;;;;;;;4.82;0.90;;;14.10;99.90;;;;;;5042399;28;20060;-77
2022/07/27 01:33:11;;;;;;;4.95;1.30;;;14.10;99.90;;;;;;5045795;28;20042;-77
2022/07/27 01:35:38;;;;;;;5.55;1.25;;;14.10;99.90;;;;;;5031632;28;20127;-77
2022/07/27 01:38:06;;;;;;;2.55;1.00;;;14.20;99.90;;;;;;5044532;28;20041;-77
2022/07/27 01:40:32;;;;;;;3.10;1.02;;;14.20;99.90;;;;;;5028480;28;20087;-77
2022/07/27 01:42:58;;;;;;;7.90;1.45;;;14.10;99.90;;;;;;5043575;28;20395;-77
2022/07/27 01:45:24;;;;;;;5.13;0.93;;;14.10;99.90;;;;;;5040177;28;20136;-77
2022/07/27 01:47:49;;;;;;;5.22;1.10;;;14.10;99.90;;;;;;5048002;28;20415;-77
2022/07/27 01:50:15;;;;;;;4.72;1.10;;;14.80;99.90;;;;;;5045734;28;20047;-77
2022/07/27 01:52:41;;;;;;;6.03;1.17;;;14.00;99.90;;;;;;5042929;28;20036;-75
2022/07/27 01:55:09;;;;;;;3.80;1.25;;;14.00;99.90;;;;;;5049436;28;20072;-77
2022/07/27 01:57:34;;;;;;;7.38;1.15;;;14.00;99.90;;;;;;5026383;28;20029;-78
2022/07/27 02:00:01;;;;;;;2.30;1.08;;;14.00;99.90;;;;;;5039905;28;20047;-77
2022/07/27 02:02:30;;;;;;;5.82;0.88;;;14.00;99.90;;;;;;5041475;28;20135;-77
2022/07/27 02:04:55;;;;;;;5.43;1.08;;;14.00;99.90;;;;;;5041984;28;20044;-77
2022/07/27 02:07:21;;;;;;;3.40;1.10;;;13.90;99.90;;;;;;5041199;28;20071;-76
2022/07/27 02:09:47;;;;;;;5.32;1.05;;;13.90;99.90;;;;;;5045408;28;20503;-77
2022/07/27 02:15:07;;;;;;;1.73;0.73;;;13.90;99.90;;;;;;5030496;28;20485;-77
2022/07/27 02:17:33;;;;;;;7.70;1.38;;;13.80;99.90;;;;;;5041110;28;20037;-77
2022/07/27 02:20:03;;;;;;;3.22;1.35;;;13.70;99.90;;;;;;5038169;28;20041;-77
2022/07/27 02:22:29;;;;;;;4.22;1.00;;;13.80;99.90;;;;;;5035230;28;20430;-77
2022/07/27 02:24:54;;;;;;;4.35;1.20;;;13.70;99.90;;;;;;5047595;28;20041;-78
2022/07/27 02:27:20;;;;;;;6.05;1.30;;;13.70;99.90;;;;;;5039287;28;20071;-77
2022/07/27 02:29:46;;;;;;;3.15;1.10;;;13.60;99.90;;;;;;5021325;28;20046;-77
2022/07/27 02:32:12;;;;;;;3.08;1.20;;;13.60;99.90;;;;;;5041564;28;20044;-77
2022/07/27 02:34:37;;;;;;;7.82;1.25;;;13.50;99.90;;;;;;5041609;28;20127;-77
2022/07/27 02:37:03;;;;;;;2.60;0.85;;;12.90;99.90;;;;;;5048220;28;20096;-78
2022/07/27 02:39:29;;;;;;;2.40;1.15;;;13.60;99.90;;;;;;5035523;28;20033;-77
2022/07/27 02:41:54;;;;;;;5.40;1.38;;;13.60;99.90;;;;;;5029381;28;20115;-77
2022/07/27 02:44:20;;;;;;;5.97;1.20;;;13.60;99.90;;;;;;5041994;28;20492;-77
2022/07/27 02:46:46;;;;;;;3.97;1.20;;;13.60;99.90;;;;;;5038195;28;20049;-77
2022/07/27 02:49:12;;;;;;;6.38;1.20;;;13.60;99.90;;;;;;5039677;28;20060;-76
2022/07/27 02:51:38;;;;;;;3.17;1.15;;;13.60;99.90;;;;;;5040744;28;20033;-76
2022/07/27 02:54:03;;;;;;;4.78;1.02;;;13.60;99.90;;;;;;5041325;28;20033;-77
2022/07/27 02:56:32;;;;;;;4.45;1.23;;;14.20;99.90;;;;;;5038590;28;20041;-77
2022/07/27 02:58:57;;;;;;;6.30;1.27;;;14.00;99.90;;;;;;5039937;28;20392;-76
2022/07/27 03:01:23;;;;;;;3.67;0.90;;;13.60;99.90;;;;;;5021930;28;20053;-77
2022/07/27 03:03:49;;;;;;;5.72;1.30;;;14.20;99.90;;;;;;5034805;28;20542;-77
2022/07/27 03:06:17;;;;;;;4.75;1.10;;;13.60;99.90;;;;;;5041011;28;20077;-77
2022/07/27 03:08:43;;;;;;;7.22;1.63;;;13.60;99.90;;;;;;5049967;28;20116;-77
2022/07/27 03:11:08;;;;;;;5.47;2.90;;;13.60;99.90;;;;;;5019038;28;20132;-77
2022/07/27 03:13:34;;;;;;;5.55;1.75;;;13.70;99.90;;;;;;5041252;28;20041;-77
2022/07/27 03:16:00;;;;;;;5.13;1.48;;;13.60;99.90;;;;;;5028623;28;20045;-77
2022/07/27 03:18:25;;;;;;;7.22;1.40;;;13.60;99.90;;;;;;5046485;28;20303;-77
2022/07/27 03:20:51;;;;;;;5.40;1.23;;;13.60;99.90;;;;;;5036392;28;20092;-77
2022/07/27 03:23:18;;;;;;;4.32;1.42;;;13.70;99.90;;;;;;5039177;28;20060;-77
2022/07/27 03:25:46;;;;;;;6.78;1.88;;;13.50;99.90;;;;;;5016595;28;20037;-76
2022/07/27 03:28:11;;;;;;;5.43;1.40;;;13.50;99.90;;;;;;5015564;28;20033;-76
2022/07/27 03:30:37;;;;;;;3.25;1.25;;;13.50;99.90;;;;;;5023551;28;20051;-77
2022/07/27 03:33:03;;;;;;;8.70;1.88;;;13.50;99.90;;;;;;5014008;28;20435;-78
2022/07/27 03:35:31;;;;;;;8.23;1.42;;;13.60;99.90;;;;;;5027838;28;20063;-77
2022/07/27 03:37:57;;;;;;;8.98;1.75;;;13.60;99.90;;;;;;5035890;28;20049;-78
2022/07/27 03:40:23;;;;;;;5.15;1.20;;;13.60;99.90;;;;;;5043090;28;20095;-77
2022/07/27 03:42:49;;;;;;;5.63;1.58;;;14.40;99.90;;;;;;5040671;28;20041;-76
2022/07/27 03:45:18;;;;;;;7.63;1.58;;;13.60;99.90;;;;;;5045477;28;20086;-78
2022/07/27 03:47:46;;;;;;;4.30;0.90;;;13.70;99.90;;;;;;5044647;28;20037;-82
2022/07/27 03:50:16;;;;;;;6.35;1.33;;;13.60;99.90;;;;;;5049290;28;20051;-81
2022/07/27 03:52:41;;;;;;;9.50;1.92;;;13.70;99.90;;;;;;5050346;28;20041;-80
2022/07/27 03:55:07;;;;;;;7.10;1.67;;;13.90;99.90;;;;;;5050437;28;20556;-80
2022/07/27 03:57:33;;;;;;;6.03;1.38;;;13.60;99.90;;;;;;5031317;28;20081;-80
2022/07/27 03:59:59;;;;;;;7.70;1.55;;;13.60;99.90;;;;;;5040607;28;20053;-80
2022/07/27 04:02:24;;;;;;;6.47;1.70;;;13.60;99.90;;;;;;5031371;28;20404;-80
2022/07/27 04:04:50;;;;;;;6.97;1.85;;;13.60;99.90;;;;;;5046796;28;20049;-79
2022/07/27 04:07:16;;;;;;;7.20;1.60;;;13.60;99.90;;;;;;5045777;28;20128;-79
2022/07/27 04:09:41;;;;;;;5.30;2.08;;;13.60;99.90;;;;;;5046022;28;20365;-78
2022/07/27 04:12:07;;;;;;;7.07;1.40;;;14.50;99.90;;;;;;5029635;28;20068;-79
2022/07/27 04:14:33;;;;;;;6.72;1.40;;;13.60;99.90;;;;;;5031541;28;20120;-79
2022/07/27 04:17:02;;;;;;;6.43;1.60;;;13.70;99.90;;;;;;5047073;28;20389;-80
2022/07/27 04:19:27;;;;;;;7.47;2.70;;;13.70;99.90;;;;;;5051183;28;20083;-79
2022/07/27 04:21:53;;;;;;;7.72;1.65;;;13.80;99.90;;;;;;5042894;28;20417;-80
2022/07/27 04:24:18;;;;;;;6.80;1.80;;;14.00;99.90;;;;;;5048786;28;20033;-80
2022/07/27 04:26:47;;;;;;;5.78;1.00;;;13.70;99.90;;;;;;5044891;28;20382;-80
2022/07/27 04:29:13;;;;;;;5.05;1.55;;;13.50;99.90;;;;;;5035413;28;20090;-80
2022/07/27 04:31:39;;;;;;;9.45;1.63;;;14.60;99.90;;;;;;5045889;28;20042;-80
2022/07/27 04:34:07;;;;;;;4.53;1.45;;;13.70;99.90;;;;;;5038935;28;20045;-79
2022/07/27 04:36:33;;;;;;;8.32;1.70;;;14.70;99.90;;;;;;5045856;28;20500;-80
2022/07/27 04:39:02;;;;;;;3.70;1.20;;;13.90;99.90;;;;;;5042991;28;20045;-79
2022/07/27 04:41:28;;;;;;;4.40;1.50;;;13.80;99.90;;;;;;5048569;28;20049;-80
2022/07/27 04:43:53;;;;;;;7.10;2.28;;;13.70;99.90;;;;;;5028752;28;20058;-80
2022/07/27 04:46:19;;;;;;;7.97;2.40;;;14.30;99.90;;;;;;5042690;28;20067;-78
2022/07/27 04:48:46;;;;;;;4.05;1.75;;;13.80;99.90;;;;;;5046371;28;20036;-79
2022/07/27 04:51:13;;;;;;;7.95;1.73;;;14.00;99.90;;;;;;5051725;28;20037;-80
2022/07/27 04:53:39;;;;;;;6.30;1.10;;;13.70;99.90;;;;;;5049919;28;20041;-80
2022/07/27 04:56:05;;;;;;;5.80;1.25;;;14.50;99.90;;;;;;5043418;28;20128;-80
2022/07/27 04:58:31;;;;;;;3.78;1.23;;;13.80;99.90;;;;;;5019973;28;20049;-80
2022/07/27 05:00:58;;;;;;;7.13;1.30;;;13.80;99.90;;;;;;5048924;28;20199;-80
2022/07/27 05:03:23;;;;;;;5.38;1.55;;;13.80;99.90;;;;;;5047629;28;20441;-80
2022/07/27 05:05:49;;;;;;;9.50;1.38;;;13.90;99.90;;;;;;5036928;28;20485;-81
2022/07/27 05:08:15;;;;;;;6.88;3.25;;;14.00;99.90;;;;;;5045496;28;20087;-80
2022/07/27 05:10:40;;;;;;;8.70;3.22;;;13.90;99.90;;;;;;5048496;28;20029;-82
2022/07/27 05:13:06;;;;;;;17.88;10.60;;;15.00;99.90;;;;;;5050449;28;20048;-81
2022/07/27 05:15:32;;;;;;;6.65;2.22;;;14.20;99.90;;;;;;5048287;28;20429;-81
2022/07/27 05:17:58;;;;;;;4.97;0.90;;;14.00;99.90;;;;;;5043448;28;20432;-81
2022/07/27 05:20:24;;;;;;;2.88;1.27;;;14.00;99.90;;;;;;5025758;28;20045;-81
2022/07/27 05:22:50;;;;;;;4.63;1.00;;;14.00;99.90;;;;;;5055964;28;20021;-81
2022/07/27 05:25:25;;;;;;;5.60;0.85;;;14.10;99.90;;;;;;5065539;28;20033;-81
2022/07/27 05:28:00;;;;;;;4.30;0.90;;;14.10;99.90;;;;;;5058184;28;20119;-81
2022/07/27 05:30:35;;;;;;;5.63;0.85;;;14.10;99.90;;;;;;5068014;28;20550;-81
2022/07/27 05:33:03;;;;;;;2.42;0.60;;;14.20;99.90;;;;;;5043138;28;20068;-81
2022/07/27 05:35:30;;;;;;;3.78;0.73;;;15.40;99.90;;;;;;5054462;28;20488;-81
2022/07/27 05:37:56;;;;;;;9.10;0.70;;;14.50;99.90;;;;;;5030322;28;20045;-79
2022/07/27 05:40:46;;;;;;;3.47;0.60;;;14.30;99.90;;;;;;5056277;28;20046;-80
2022/07/27 05:43:15;;;;;;;3.53;0.73;;;14.50;99.90;;;;;;5046769;28;20048;-77
2022/07/27 05:45:46;;;;;;;34.92;25.02;;;14.40;99.90;;;;;;5063957;28;20040;-80
2022/07/27 05:48:14;;;;;;;7.53;3.70;;;14.40;99.90;;;;;;5059976;28;20021;-80
2022/07/27 05:50:40;;;;;;;3.80;1.52;;;14.40;99.90;;;;;;5049175;28;20056;-81
2022/07/27 05:53:05;;;;;;;3.83;0.90;;;14.40;99.90;;;;;;5050567;28;20405;-81
2022/07/27 05:55:32;;;;;;;3.88;0.85;;;14.50;99.90;;;;;;5019366;28;20056;-80
2022/07/27 05:57:57;;;;;;;1.92;0.47;;;14.50;99.90;;;;;;5040921;28;20041;-81
2022/07/27 06:00:23;;;;;;;4.25;0.90;;;15.70;99.90;;;;;;5038077;28;20056;-81
2022/07/27 06:02:49;;;;;;;4.32;0.90;;;14.60;99.90;;;;;;5049292;28;20500;-81
2022/07/27 06:05:14;;;;;;;9.10;1.17;;;14.60;99.90;;;;;;5049421;28;20485;-81
2022/07/27 06:10:28;;;;;;;6.30;1.13;;;14.70;99.90;;;;;;5029224;28;20057;-81
2022/07/27 06:12:54;;;;;;;6.38;0.98;;;15.70;99.90;;;;;;5025831;28;20041;-81
2022/07/27 06:15:19;;;;;;;4.50;0.90;;;14.70;99.90;;;;;;5038705;28;20042;-80
2022/07/27 06:17:47;;;;;;;6.25;1.00;;;14.80;99.90;;;;;;5048453;28;20070;-79
2022/07/27 06:20:17;;;;;;;6.38;1.30;;;15.10;99.90;;;;;;5042650;28;20092;-80
2022/07/27 06:22:51;;;;;;;8.80;1.27;;;14.80;99.90;;;;;;5041277;28;20038;-80
2022/07/27 06:25:18;;;;;;;3.03;1.02;;;14.80;99.90;;;;;;5041689;28;20053;-80
2022/07/27 06:27:44;;;;;;;5.00;0.75;;;14.90;99.90;;;;;;5039512;28;20056;-80
2022/07/27 06:30:12;;;;;;;6.07;1.13;;;14.90;99.90;;;;;;5042429;28;20037;-80
2022/07/27 06:32:38;;;;;;;4.40;1.00;;;14.90;99.90;;;;;;5041038;28;20045;-79
2022/07/27 06:35:04;;;;;;;4.35;0.93;;;15.20;99.90;;;;;;5041315;28;20524;-79
2022/07/27 06:37:31;;;;;;;5.13;1.05;;;14.90;99.90;;;;;;5044140;28;20077;-80
2022/07/27 06:39:58;;;;;;;3.33;1.00;;;15.30;99.90;;;;;;5044694;28;20053;-80
2022/07/27 06:42:23;;;;;;;7.57;1.27;;;15.00;99.90;;;;;;5039600;28;20034;-80
2022/07/27 06:44:49;;;;;;;6.07;0.88;;;15.00;99.90;;;;;;5023296;28;20048;-80
2022/07/27 06:47:14;;;;;;;5.28;1.02;;;15.80;99.90;;;;;;5042686;28;20045;-80
2022/07/27 06:49:40;;;;;;;4.00;1.05;;;15.60;99.90;;;;;;5040917;28;20473;-80
2022/07/27 06:52:08;;;;;;;4.03;0.70;;;15.20;99.90;;;;;;5022718;28;20053;-80
2022/07/27 06:54:34;;;;;;;9.95;1.10;;;15.20;99.90;;;;;;5041648;28;20041;-80
2022/07/27 06:57:00;;;;;;;8.30;0.82;;;15.20;99.90;;;;;;5040707;28;20056;-81
2022/07/27 06:59:25;;;;;;;5.10;0.40;;;15.30;99.90;;;;;;5022884;28;20060;-80
2022/07/27 07:01:51;;;;;;;6.82;1.17;;;15.30;99.90;;;;;;5040675;28;20045;-81
2022/07/27 07:04:17;;;;;;;8.35;1.20;;;15.30;99.90;;;;;;5040570;28;20417;-80
2022/07/27 07:06:43;;;;;;;3.90;0.85;;;15.30;99.90;;;;;;5039836;28;20041;-81
2022/07/27 07:09:09;;;;;;;5.15;0.80;;;15.40;99.90;;;;;;5041359;28;20075;-80
2022/07/27 07:11:35;;;;;;;4.68;1.02;;;15.40;99.90;;;;;;5039539;28;20045;-79
2022/07/27 07:14:00;;;;;;;4.85;0.75;;;15.40;99.90;;;;;;5040446;28;20052;-80
2022/07/27 07:16:26;;;;;;;4.60;0.95;;;15.50;99.90;;;;;;5039387;28;20041;-80
2022/07/27 07:18:52;;;;;;;8.52;1.05;;;15.50;99.90;;;;;;5038741;28;20041;-80
2022/07/27 07:21:18;;;;;;;4.47;1.00;;;15.60;99.90;;;;;;5041272;28;20423;-80
2022/07/27 07:23:44;;;;;;;7.88;0.98;;;16.90;99.90;;;;;;5013596;28;20063;-77
2022/07/27 07:26:10;;;;;;;4.90;0.70;;;15.70;99.90;;;;;;5033312;28;20040;-80
2022/07/27 07:28:36;;;;;;;9.32;1.02;;;15.70;99.90;;;;;;5024988;28;20226;-79
2022/07/27 07:31:01;;;;;;;6.22;1.05;;;15.80;99.90;;;;;;5029128;28;20404;-80
2022/07/27 07:33:30;;;;;;;6.28;0.85;;;15.90;99.90;;;;;;5050314;28;20618;-80
2022/07/27 07:35:55;;;;;;;5.47;1.38;;;15.90;99.90;;;;;;5021166;28;20049;-79
2022/07/27 07:38:21;;;;;;;3.65;1.00;;;16.00;99.90;;;;;;5022465;28;20436;-80
2022/07/27 07:40:47;;;;;;;9.55;1.20;;;16.10;99.90;;;;;;5028541;28;20159;-81
2022/07/27 07:43:13;;;;;;;4.97;1.17;;;16.10;99.90;;;;;;5038231;28;20055;-80
2022/07/27 07:45:42;;;;;;;6.03;0.80;;;17.10;99.90;;;;;;5039967;28;20045;-81
2022/07/27 07:48:10;;;;;;;3.85;0.95;;;16.20;99.90;;;;;;5022985;28;20048;-79
2022/07/27 07:50:36;;;;;;;5.20;0.80;;;16.10;99.90;;;;;;5036383;28;20133;-79
2022/07/27 07:53:01;;;;;;;5.95;1.02;;;16.10;99.90;;;;;;5009627;28;20044;-79
2022/07/27 07:55:28;;;;;;;5.72;1.17;;;15.90;99.90;;;;;;5025446;28;20037;-79
2022/07/27 07:57:54;;;;;;;3.83;0.98;;;15.90;99.90;;;;;;5044109;28;20045;-81
2022/07/27 08:00:21;;;;;;;5.00;0.73;;;16.40;99.90;;;;;;5045341;28;20060;-79
2022/07/27 08:02:49;;;;;;;2.50;0.80;;;15.70;99.90;;;;;;5040324;28;20057;-77
2022/07/27 08:05:15;;;;;;;4.32;0.90;;;15.70;99.90;;;;;;5044127;28;20138;-81
2022/07/27 08:07:46;;;;;;;4.22;1.20;;;15.70;99.90;;;;;;5045360;28;20045;-81
2022/07/27 08:10:15;;;;;;;6.75;1.20;;;15.60;99.90;;;;;;5047735;28;20515;-80
2022/07/27 08:12:43;;;;;;;7.82;1.20;;;15.60;99.90;;;;;;5043099;28;20036;-82
2022/07/27 08:15:13;;;;;;;5.25;0.73;;;15.60;99.90;;;;;;5029632;28;20076;-80
2022/07/27 08:17:42;;;;;;;7.40;1.42;;;15.80;99.90;;;;;;5048240;28;20041;-79
2022/07/27 08:20:09;;;;;;;10.73;1.42;;;15.50;99.90;;;;;;5029754;28;20404;-82
2022/07/27 08:22:34;;;;;;;6.30;1.10;;;15.60;99.90;;;;;;5046843;28;20477;-81
2022/07/27 08:25:00;;;;;;;4.32;0.82;;;16.60;99.90;;;;;;5050169;28;20083;-80
2022/07/27 08:27:27;;;;;;;4.90;0.80;;;15.60;99.90;;;;;;5049399;28;20147;-82
2022/07/27 08:29:52;;;;;;;4.15;0.43;;;15.60;99.90;;;;;;5047823;28;20099;-81
2022/07/27 08:32:19;;;;;;;6.38;0.95;;;16.10;99.90;;;;;;5049334;28;20049;-81
2022/07/27 08:34:44;;;;;;;4.60;1.10;;;15.70;99.90;;;;;;5049776;28;20055;-83
2022/07/27 08:37:10;;;;;;;9.27;0.80;;;15.70;99.90;;;;;;5049095;28;20037;-81
2022/07/27 08:39:36;;;;;;;6.88;1.00;;;15.80;99.90;;;;;;5047940;28;20498;-80
2022/07/27 08:42:16;;;;;;;4.43;0.60;;;16.70;99.90;;;;;;5050673;28;20095;-82
2022/07/27 08:44:43;;;;;;;1.10;0.22;;;15.90;99.90;;;;;;5049105;28;20129;-79
2022/07/27 08:47:13;;;;;;;1.50;0.22;;;16.00;99.90;;;;;;5049416;28;20109;-81
2022/07/27 08:49:42;;;;;;;2.88;0.52;;;16.00;99.90;;;;;;5044036;28;20044;-79
2022/07/27 08:52:11;;;;;;;1.95;0.60;;;16.10;99.90;;;;;;5051639;28;20496;-80
2022/07/27 08:54:39;;;;;;;2.67;0.50;;;16.10;99.90;;;;;;5044781;28;20033;-83
2022/07/27 08:57:07;;;;;;;2.63;0.65;;;16.40;99.90;;;;;;5044726;28;20053;-82
2022/07/27 08:59:32;;;;;;;5.55;0.85;;;16.30;99.90;;;;;;5049195;28;20055;-78
2022/07/27 09:02:01;;;;;;;2.10;0.80;;;16.30;99.90;;;;;;5045869;28;20053;-78
2022/07/27 09:04:30;;;;;;;1.90;0.40;;;16.40;99.90;;;;;;5035237;28;20116;-78
2022/07/27 09:06:56;;;;;;;3.38;0.70;;;16.40;99.90;;;;;;5047279;28;20537;-78
2022/07/27 09:09:22;;;;;;;2.20;0.60;;;16.40;99.90;;;;;;5031866;28;20037;-81
2022/07/27 09:12:09;;;;;;;3.15;0.60;;;16.50;99.90;;;;;;5032192;28;20089;-80
2022/07/27 09:14:41;;;;;;;4.95;0.88;;;16.60;99.90;;;;;;5042773;28;20431;-83
2022/07/27 09:17:26;;;;;;;5.72;0.68;;;16.70;99.90;;;;;;5046551;28;20417;-84
2022/07/27 09:19:53;;;;;;;5.95;0.82;;;16.70;99.90;;;;;;5046707;28;20037;-82
2022/07/27 09:22:38;;;;;;;4.28;1.20;;;16.70;99.90;;;;;;5049727;28;20050;-79
2022/07/27 09:25:04;;;;;;;6.80;1.17;;;17.10;99.90;;;;;;5049345;28;20083;-82
2022/07/27 09:27:30;;;;;;;8.73;1.23;;;16.90;99.90;;;;;;5047634;28;20049;-81
2022/07/27 09:30:14;;;;;;;5.00;0.85;;;16.90;99.90;;;;;;5041091;28;20523;-81
2022/07/27 09:33:01;;;;;;;5.63;1.30;;;17.10;99.90;;;;;;5030226;28;20075;-80
2022/07/27 09:35:29;;;;;;;2.53;0.77;;;17.20;99.90;;;;;;5048404;28;20072;-80
2022/07/27 09:38:16;;;;;;;4.05;0.52;;;18.00;99.90;;;;;;5041940;28;20045;-81
2022/07/27 09:40:42;;;;;;;11.43;1.98;;;17.20;99.90;;;;;;5044547;28;20041;-80
2022/07/27 09:43:11;;;;;;;5.80;1.20;;;17.30;99.90;;;;;;5045515;28;20045;-80
2022/07/27 09:45:37;;;;;;;8.25;0.52;;;17.20;99.90;;;;;;5046929;28;20084;-80
2022/07/27 09:48:07;;;;;;;5.80;0.63;;;17.30;99.90;;;;;;5039409;28;20055;-81
2022/07/27 09:50:33;;;;;;;3.83;0.60;;;17.40;99.90;;;;;;5044796;28;20036;-80
2022/07/27 09:53:23;;;;;;;7.07;0.95;;;17.40;99.90;;;;;;5048358;28;20091;-80
2022/07/27 09:56:08;;;;;;;5.70;0.50;;;17.40;99.90;;;;;;5045564;28;20047;-79
2022/07/27 09:58:41;;;;;;;2.08;0.60;;;17.40;99.90;;;;;;5045464;28;20123;-80
2022/07/27 10:01:09;;;;;;;5.57;0.70;;;17.40;99.90;;;;;;5050524;28;20065;-79
2022/07/27 10:03:35;;;;;;;2.80;0.40;;;17.40;99.90;;;;;;5024305;28;20054;-80
2022/07/27 10:06:02;;;;;;;5.63;0.73;;;17.40;99.90;;;;;;5028465;28;20033;-78
2022/07/27 10:08:28;;;;;;;4.00;1.42;;;17.50;99.90;;;;;;5049017;28;20530;-76
2022/07/27 10:10:55;;;;;;;5.00;0.90;;;17.50;99.90;;;;;;5040306;28;20044;-75
2022/07/27 10:13:23;;;;;;;3.47;0.73;;;17.50;99.90;;;;;;5040762;28;20456;-76
2022/07/27 10:15:50;;;;;;;2.03;0.75;;;17.60;99.90;;;;;;5043823;28;20699;-75
2022/07/27 10:18:28;;;;;;;5.38;0.68;;;17.60;99.90;;;;;;5042578;28;20424;-75
2022/07/27 10:20:56;;;;;;;3.28;0.82;;;17.80;99.90;;;;;;5046553;28;20488;-74
2022/07/27 10:23:27;;;;;;;2.30;0.25;;;17.90;99.90;;;;;;5027959;28;20041;-77
2022/07/27 10:26:16;;;;;;;7.72;0.80;;;18.00;99.90;;;;;;5043534;28;20049;-77
2022/07/27 10:28:57;;;;;;;5.28;1.00;;;18.10;99.90;;;;;;4694843;28;9999928;-78
2022/07/27 10:31:25;;;;;;;4.82;0.50;;;18.20;99.90;;;;;;5042574;28;20435;-74
2022/07/27 10:33:57;;;;;;;2.00;0.50;;;18.70;99.90;;;;;;5039757;28;20053;-78
2022/07/27 10:36:23;;;;;;;3.47;0.57;;;18.30;99.90;;;;;;5022869;28;20041;-77
2022/07/27 10:38:58;;;;;;;7.05;0.60;;;18.30;99.90;;;;;;5045714;28;20103;-77
2022/07/27 10:41:29;;;;;;;4.10;1.20;;;18.40;99.90;;;;;;5032421;28;20435;-77
2022/07/27 10:44:20;;;;;;;10.02;8.73;;;18.30;99.90;;;;;;5044064;28;20045;-77
2022/07/27 10:46:53;;;;;;;3.05;0.88;;;18.30;99.90;;;;;;5034208;28;20492;-78
2022/07/27 10:49:21;;;;;;;2.08;0.38;;;18.30;99.90;;;;;;5040710;28;20037;-76
2022/07/27 10:51:47;;;;;;;1.80;0.73;;;18.30;99.90;;;;;;5043317;28;20094;-79
2022/07/27 10:54:25;;;;;;;23.30;16.92;;;18.00;99.90;;;;;;5044074;28;20466;-78
2022/07/27 10:56:54;;;;;;;1.95;0.52;;;18.30;99.90;;;;;;5013828;28;20045;-78
2022/07/27 10:59:38;;;;;;;3.45;0.20;;;18.30;99.90;;;;;;5039061;28;20053;-79
2022/07/27 11:02:15;;;;;;;0.82;0.20;;;18.30;99.90;;;;;;5043754;28;20109;-77
2022/07/27 11:04:50;;;;;;;2.25;0.60;;;18.40;99.90;;;;;;5021287;28;20403;-77
2022/07/27 11:07:21;;;;;;;3.25;0.70;;;18.50;99.90;;;;;;5007570;28;20041;-77
2022/07/27 11:09:51;;;;;;;3.15;0.43;;;18.60;99.90;;;;;;5023788;28;20057;-78
2022/07/27 11:12:18;;;;;;;4.75;0.25;;;18.80;99.90;;;;;;5028884;28;20068;-77
2022/07/27 11:14:48;;;;;;;1.95;0.40;;;18.90;99.90;;;;;;5043401;28;20045;-78
2022/07/27 11:17:16;;;;;;;1.65;0.17;;;19.20;99.90;;;;;;5040474;28;20381;-77
2022/07/27 11:19:42;;;;;;;2.05;0.93;;;19.10;99.90;;;;;;5024083;28;20536;-78
2022/07/27 11:22:08;;;;;;;2.70;0.47;;;19.10;99.90;;;;;;5043500;28;20117;-78
2022/07/27 11:24:35;;;;;;;5.13;3.17;;;19.00;99.90;;;;;;5045433;28;20076;-77
2022/07/27 11:27:01;;;;;;;5.78;0.50;;;19.30;99.90;;;;;;5043928;28;20611;-78
2022/07/27 11:29:27;;;;;;;2.63;0.38;;;19.00;99.80;;;;;;5047968;28;20037;-79
2022/07/27 11:31:54;;;;;;;2.38;0.60;;;19.20;99.90;;;;;;5041973;28;20041;-77
2022/07/27 11:34:34;;;;;;;1.60;0.10;;;19.30;99.90;;;;;;5012085;28;20444;-77
2022/07/27 11:37:01;;;;;;;1.95;0.10;;;19.50;99.90;;;;;;5028808;28;20060;-76
2022/07/27 11:39:30;;;;;;;5.32;0.40;;;19.70;99.90;;;;;;5030379;28;20048;-79
2022/07/27 11:41:59;;;;;;;1.65;0.50;;;19.90;98.80;;;;;;5047867;28;20037;-87
2022/07/27 11:44:25;;;;;;;1.65;0.30;;;19.90;98.90;;;;;;5043290;28;20045;-86
2022/07/27 11:46:52;;;;;;;1.23;0.20;;;19.90;98.30;;;;;;5027737;28;20535;-85
2022/07/27 11:49:25;;;;;;;0.93;0.30;;;20.00;97.50;;;;;;5045556;28;20568;-86
2022/07/27 11:51:51;;;;;;;0.45;0.10;;;20.20;97.40;;;;;;5046126;28;20102;-86
2022/07/27 11:54:35;;;;;;;5.32;0.63;;;20.30;97.70;;;;;;5047060;28;20045;-85
2022/07/27 11:57:03;;;;;;;3.03;0.30;;;20.40;97.80;;;;;;5046125;28;20083;-83
2022/07/27 11:59:30;;;;;;;3.88;0.38;;;20.40;98.10;;;;;;5029309;28;20045;-84
2022/07/27 12:02:02;;;;;;;3.85;0.20;;;20.40;98.50;;;;;;5047143;28;20562;-85
2022/07/27 12:04:30;;;;;;;1.90;0.20;;;20.30;98.30;;;;;;5044084;28;20033;-80
2022/07/27 12:07:09;;;;;;;6.25;3.45;;;20.30;98.30;;;;;;5044661;28;20412;-80
2022/07/27 12:10:05;;;;;;;2.67;0.80;;;20.20;98.20;;;;;;5020461;28;20033;-80
2022/07/27 12:12:33;;;;;;;1.70;0.45;;;20.00;98.10;;;;;;5015535;28;20049;-81
2022/07/27 12:15:02;;;;;;;2.22;0.35;;;19.90;98.50;;;;;;5051251;28;20040;-80
2022/07/27 12:17:34;;;;;;;4.18;0.47;;;19.80;98.30;;;;;;5027077;28;20148;-80
2022/07/27 12:20:12;;;;;;;3.70;0.40;;;19.60;98.30;;;;;;5011303;28;20045;-80
2022/07/27 12:22:40;;;;;;;4.57;0.35;;;19.60;98.60;;;;;;5041238;28;20512;-77
2022/07/27 12:25:20;;;;;;;2.88;0.30;;;19.60;98.90;;;;;;5030589;28;20029;-78
2022/07/27 12:27:57;;;;;;;2.85;0.40;;;19.50;98.80;;;;;;5043090;28;20119;-78
2022/07/27 12:30:31;;;;;;;2.55;0.40;;;19.50;98.50;;;;;;5044154;28;20442;-79
2022/07/27 12:32:58;;;;;;;3.33;0.35;;;19.50;98.90;;;;;;5044259;28;20111;-77
2022/07/27 12:35:30;;;;;;;5.13;0.40;;;19.40;99.20;;;;;;5010390;28;20418;-77
2022/07/27 12:38:00;;;;;;;6.82;0.68;;;19.40;99.40;;;;;;5043042;28;20037;-76
2022/07/27 12:40:27;;;;;;;5.43;0.40;;;19.30;99.10;;;;;;5045699;28;20072;-80
2022/07/27 12:43:03;;;;;;;4.50;0.43;;;19.30;99.30;;;;;;5051102;28;20037;-81
2022/07/27 12:45:35;;;;;;;5.20;3.03;;;19.30;99.60;;;;;;5013527;28;20479;-81
2022/07/27 12:48:09;;;;;;;3.38;0.80;;;19.30;99.60;;;;;;5024519;28;20036;-82
2022/07/27 12:50:38;;;;;;;5.25;0.50;;;19.30;99.90;;;;;;5040227;28;20042;-81
2022/07/27 12:53:04;;;;;;;3.15;0.47;;;18.60;99.50;;;;;;5023825;28;20045;-82
2022/07/27 12:55:30;;;;;;;2.55;0.55;;;19.40;99.60;;;;;;5042898;28;20049;-81